createdAt,value
2019-05-20T00:01:31.237Z,19.30
2019-05-20T00:03:59.879Z,18.37
2019-05-20T00:06:28.552Z,19.00
2019-05-20T00:08:57.209Z,19.00
2019-05-20T00:11:25.866Z,18.43
2019-05-20T00:13:54.499Z,18.40
2019-05-20T00:16:23.088Z,19.10
2019-05-20T00:18:51.725Z,18.60
2019-05-20T00:21:20.312Z,18.40
2019-05-20T00:23:48.960Z,19.23
2019-05-20T00:26:17.536Z,19.70
2019-05-20T00:28:46.161Z,19.30
2019-05-20T00:31:14.773Z,19.40
2019-05-20T00:33:43.438Z,19.50
2019-05-20T00:36:12.216Z,17.97
2019-05-20T00:38:41.198Z,18.30
2019-05-20T00:41:09.800Z,18.50
2019-05-20T00:43:38.465Z,19.17
2019-05-20T00:46:07.060Z,19.40
2019-05-20T00:48:35.704Z,19.17
2019-05-20T00:51:04.339Z,20.27
2019-05-20T00:53:32.952Z,19.33
2019-05-20T00:56:01.559Z,19.50
2019-05-20T00:58:30.345Z,20.43
2019-05-20T01:00:58.982Z,19.33
2019-05-20T01:03:27.673Z,20.40
2019-05-20T01:05:56.265Z,18.77
2019-05-20T01:08:24.927Z,18.60
2019-05-20T01:10:53.507Z,19.57
2019-05-20T01:13:22.191Z,19.10
2019-05-20T01:15:50.790Z,18.97
2019-05-20T01:18:19.558Z,19.73
2019-05-20T01:20:48.162Z,20.23
2019-05-20T01:23:16.838Z,18.50
2019-05-20T01:25:45.437Z,19.20
2019-05-20T01:28:14.061Z,19.67
2019-05-20T01:30:42.530Z,19.80
2019-05-20T01:33:14.268Z,18.67
2019-05-20T01:35:42.622Z,19.13
2019-05-20T01:38:11.255Z,19.97
2019-05-20T01:40:39.832Z,18.70
2019-05-20T01:43:08.460Z,19.27
2019-05-20T01:45:37.894Z,20.37
2019-05-20T01:48:06.627Z,18.80
2019-05-20T01:50:35.213Z,18.50
2019-05-20T01:53:03.876Z,18.27
2019-05-20T01:55:32.515Z,18.97
2019-05-20T01:58:01.186Z,18.37
2019-05-20T02:00:29.762Z,18.90
2019-05-20T02:02:58.456Z,18.80
2019-05-20T02:05:27.077Z,19.90
2019-05-20T02:07:55.797Z,19.70
2019-05-20T02:10:24.458Z,19.07
2019-05-20T02:12:53.106Z,19.33
2019-05-20T02:15:32.102Z,20.00
2019-05-20T02:18:00.815Z,18.30
2019-05-20T02:20:29.395Z,18.83
2019-05-20T02:23:02.431Z,18.53
2019-05-20T02:25:31.072Z,18.83
2019-05-20T02:27:59.693Z,18.43
2019-05-20T02:30:28.351Z,18.73
2019-05-20T02:32:56.985Z,18.30
2019-05-20T02:35:25.585Z,18.70
2019-05-20T02:37:54.209Z,19.60
2019-05-20T02:40:22.855Z,19.80
2019-05-20T02:42:51.513Z,19.57
2019-05-20T02:45:20.086Z,19.07
2019-05-20T02:47:48.759Z,19.33
2019-05-20T02:50:17.498Z,18.73
2019-05-20T02:52:46.148Z,18.20
2019-05-20T02:55:14.804Z,18.07
2019-05-20T02:57:43.529Z,19.03
2019-05-20T03:00:12.525Z,18.10
2019-05-20T03:02:41.188Z,20.03
2019-05-20T03:05:10.115Z,19.67
2019-05-20T03:07:38.752Z,17.90
2019-05-20T03:10:07.488Z,18.00
2019-05-20T03:12:36.149Z,19.20
2019-05-20T03:15:06.309Z,19.53
2019-05-20T03:17:34.962Z,17.90
2019-05-20T03:20:05.030Z,19.60
2019-05-20T03:22:33.630Z,19.00
2019-05-20T03:25:02.300Z,19.40
2019-05-20T03:27:30.947Z,18.73
2019-05-20T03:29:59.551Z,18.00
2019-05-20T03:32:28.172Z,18.07
2019-05-20T03:34:59.887Z,18.27
2019-05-20T03:37:27.097Z,18.50
2019-05-20T03:39:55.687Z,18.20
2019-05-20T03:42:24.462Z,17.57
2019-05-20T03:44:53.198Z,17.70
2019-05-20T03:47:21.860Z,17.43
2019-05-20T03:49:50.445Z,17.37
2019-05-20T03:52:19.164Z,18.10
2019-05-20T03:54:47.743Z,18.50
2019-05-20T03:57:16.448Z,18.23
2019-05-20T03:59:45.801Z,18.50
2019-05-20T04:02:14.561Z,18.00
2019-05-20T04:05:00.705Z,17.47
2019-05-20T04:07:13.513Z,18.00
2019-05-20T04:09:42.119Z,17.10
2019-05-20T04:12:10.741Z,18.27
2019-05-20T04:14:39.341Z,18.50
2019-05-20T04:17:07.959Z,18.00
2019-05-20T04:19:36.560Z,18.07
2019-05-20T04:22:05.205Z,18.50
2019-05-20T04:24:33.868Z,19.20
2019-05-20T04:27:02.501Z,19.23
2019-05-20T04:29:31.161Z,18.50
2019-05-20T04:31:59.839Z,19.90
2019-05-20T04:34:28.453Z,19.13
2019-05-20T04:36:57.209Z,19.20
2019-05-20T04:39:25.792Z,20.67
2019-05-20T04:41:54.534Z,19.27
2019-05-20T04:44:23.144Z,20.20
2019-05-20T04:46:51.768Z,21.00
2019-05-20T04:49:20.383Z,20.23
2019-05-20T04:51:49.016Z,20.10
2019-05-20T04:54:17.652Z,18.50
2019-05-20T04:56:46.255Z,19.20
2019-05-20T04:59:14.895Z,19.30
2019-05-20T05:01:43.478Z,20.27
2019-05-20T05:04:12.120Z,20.47
2019-05-20T05:06:42.248Z,19.80
2019-05-20T05:09:10.937Z,19.70
2019-05-20T05:11:39.506Z,21.30
2019-05-20T05:14:08.211Z,19.40
2019-05-20T05:16:36.773Z,20.27
2019-05-20T05:19:05.461Z,21.40
2019-05-20T05:21:34.277Z,19.17
2019-05-20T05:24:02.950Z,20.77
2019-05-20T05:26:31.579Z,19.43
2019-05-20T05:29:02.028Z,21.00
2019-05-20T05:31:30.661Z,20.30
2019-05-20T05:33:59.235Z,19.00
2019-05-20T05:36:27.934Z,19.70
2019-05-20T05:38:56.667Z,20.33
2019-05-20T05:41:25.345Z,20.80
2019-05-20T05:43:53.954Z,20.50
2019-05-20T05:46:22.642Z,19.83
2019-05-20T05:48:51.280Z,19.23
2019-05-20T05:51:20.014Z,19.90
2019-05-20T05:53:48.609Z,20.10
2019-05-20T05:56:17.592Z,19.93
2019-05-20T05:58:46.237Z,19.50
2019-05-20T06:01:14.973Z,19.80
2019-05-20T06:03:43.542Z,19.30
2019-05-20T06:06:13.498Z,18.80
2019-05-20T06:08:42.337Z,19.77
2019-05-20T06:11:11.036Z,18.80
2019-05-20T06:13:39.616Z,17.50
2019-05-20T06:16:08.301Z,19.33
2019-05-20T06:18:36.871Z,16.53
2019-05-20T06:21:05.835Z,16.47
2019-05-20T06:23:34.439Z,16.57
2019-05-20T06:26:03.180Z,17.40
2019-05-20T06:28:31.750Z,17.57
2019-05-20T06:31:00.443Z,15.70
2019-05-20T06:33:29.114Z,16.40
2019-05-20T06:35:57.704Z,17.00
2019-05-20T06:38:36.708Z,15.90
2019-05-20T06:41:07.116Z,15.50
2019-05-20T06:43:35.683Z,16.07
2019-05-20T06:46:05.082Z,15.97
2019-05-20T06:48:34.819Z,14.90
2019-05-20T06:51:03.504Z,15.77
2019-05-20T06:53:32.089Z,14.43
2019-05-20T06:56:00.834Z,14.20
2019-05-20T06:58:29.447Z,13.33
2019-05-20T07:00:58.139Z,14.40
2019-05-20T07:03:26.729Z,15.07
2019-05-20T07:05:55.469Z,14.97
2019-05-20T07:08:24.064Z,15.40
2019-05-20T07:10:52.685Z,15.10
2019-05-20T07:13:21.262Z,15.80
2019-05-20T07:15:49.952Z,14.60
2019-05-20T07:18:18.591Z,15.00
2019-05-20T07:20:47.344Z,14.17
2019-05-20T07:23:15.943Z,14.50
2019-05-20T07:25:44.591Z,13.07
2019-05-20T07:28:13.243Z,14.00
2019-05-20T07:30:41.941Z,12.80
2019-05-20T07:33:10.590Z,14.30
2019-05-20T07:35:39.284Z,12.73
2019-05-20T07:38:07.902Z,13.60
2019-05-20T07:40:36.618Z,12.90
2019-05-20T07:43:06.595Z,12.23
2019-05-20T07:45:35.687Z,12.33
2019-05-20T07:48:05.250Z,13.13
2019-05-20T07:50:35.436Z,11.13
2019-05-20T07:53:05.378Z,11.37
2019-05-20T07:55:37.213Z,11.47
2019-05-20T07:58:07.448Z,11.40
2019-05-20T08:00:36.764Z,11.47
2019-05-20T08:03:05.703Z,10.73
2019-05-20T08:05:34.299Z,9.60
2019-05-20T08:08:03.178Z,9.73
2019-05-20T08:10:31.769Z,11.00
2019-05-20T08:13:00.513Z,10.23
2019-05-20T08:15:29.243Z,10.73
2019-05-20T08:17:57.871Z,11.00
2019-05-20T08:20:26.451Z,10.30
2019-05-20T08:22:55.063Z,9.40
2019-05-20T08:25:23.700Z,11.00
2019-05-20T08:27:52.378Z,9.57
2019-05-20T08:30:36.119Z,10.67
2019-05-20T08:33:05.346Z,9.70
2019-05-20T08:35:33.990Z,7.80
2019-05-20T08:38:02.629Z,8.17
2019-05-20T08:40:31.344Z,9.73
2019-05-20T08:42:59.992Z,8.60
2019-05-20T08:45:28.661Z,8.50
2019-05-20T08:47:57.293Z,7.90
2019-05-20T08:50:25.936Z,8.17
2019-05-20T08:52:54.614Z,8.20
2019-05-20T08:55:23.266Z,8.40
2019-05-20T08:57:52.014Z,7.80
2019-05-20T09:00:24.232Z,8.03
2019-05-20T09:02:53.434Z,7.47
2019-05-20T09:05:22.060Z,7.70
2019-05-20T09:08:02.228Z,7.70
2019-05-20T09:10:21.054Z,7.17
2019-05-20T09:12:49.695Z,7.20
2019-05-20T09:15:18.861Z,7.10
2019-05-20T09:17:47.504Z,7.10
2019-05-20T09:20:16.474Z,6.77
2019-05-20T09:22:45.151Z,6.50
2019-05-20T09:25:14.398Z,6.33
2019-05-20T09:27:43.263Z,5.57
2019-05-20T09:30:13.264Z,5.93
2019-05-20T09:32:43.175Z,5.17
2019-05-20T09:35:12.582Z,5.70
2019-05-20T09:37:41.231Z,5.10
2019-05-20T09:40:10.094Z,5.30
2019-05-20T09:42:41.078Z,5.33
2019-05-20T09:45:09.985Z,5.57
2019-05-20T09:47:38.699Z,5.00
2019-05-20T09:50:07.532Z,6.00
2019-05-20T09:52:36.266Z,6.50
2019-05-20T09:55:07.059Z,5.90
2019-05-20T09:57:35.767Z,5.90
2019-05-20T10:00:10.372Z,5.63
2019-05-20T10:02:39.018Z,6.10
2019-05-20T10:05:07.666Z,6.47
2019-05-20T10:07:36.325Z,5.87
2019-05-20T10:10:08.387Z,5.60
2019-05-20T10:12:45.921Z,5.97
2019-05-20T10:15:08.665Z,6.20
2019-05-20T10:17:37.399Z,6.10
2019-05-20T10:20:29.643Z,6.27
2019-05-20T10:22:58.328Z,5.80
2019-05-20T10:25:26.925Z,5.87
2019-05-20T10:27:57.718Z,5.53
2019-05-20T10:30:26.123Z,5.50
2019-05-20T10:32:54.727Z,5.80
2019-05-20T10:35:23.466Z,5.53
2019-05-20T10:37:52.124Z,6.17
2019-05-20T10:40:20.753Z,4.87
2019-05-20T10:42:49.399Z,5.03
2019-05-20T10:45:18.686Z,6.13
2019-05-20T10:47:47.485Z,5.20
2019-05-20T10:50:16.110Z,5.90
2019-05-20T10:52:44.770Z,5.37
2019-05-20T10:55:13.713Z,5.53
2019-05-20T10:57:42.352Z,5.90
2019-05-20T11:00:12.466Z,5.83
2019-05-20T11:02:41.180Z,5.50
2019-05-20T11:05:11.755Z,5.93
2019-05-20T11:07:40.488Z,6.17
2019-05-20T11:10:09.516Z,5.80
2019-05-20T11:12:38.205Z,6.10
2019-05-20T11:15:07.404Z,6.10
2019-05-20T11:17:36.133Z,5.40
2019-05-20T11:20:07.015Z,5.90
2019-05-20T11:22:35.629Z,4.80
2019-05-20T11:25:06.899Z,4.70
2019-05-20T11:27:35.591Z,5.90
2019-05-20T11:30:08.666Z,5.50
2019-05-20T11:32:37.791Z,4.87
2019-05-20T11:35:07.535Z,4.97
2019-05-20T11:37:36.184Z,5.23
2019-05-20T11:40:09.660Z,5.73
2019-05-20T11:42:38.756Z,6.27
2019-05-20T11:45:08.181Z,5.33
2019-05-20T11:47:36.936Z,5.97
2019-05-20T11:50:08.677Z,5.20
2019-05-20T11:52:37.446Z,5.80
2019-05-20T11:55:06.575Z,6.20
2019-05-20T11:57:35.441Z,6.37
2019-05-20T12:00:07.245Z,5.80
2019-05-20T12:02:35.972Z,5.53
2019-05-20T12:05:09.902Z,6.07
2019-05-20T12:07:38.485Z,5.53
2019-05-20T12:10:08.213Z,5.57
2019-05-20T12:12:36.853Z,5.97
2019-05-20T12:15:08.352Z,6.20
2019-05-20T12:17:37.366Z,6.10
2019-05-20T12:20:09.864Z,5.83
2019-05-20T12:22:38.424Z,6.33
2019-05-20T12:25:07.591Z,6.30
2019-05-20T12:27:36.220Z,6.27
2019-05-20T12:30:06.145Z,5.60
2019-05-20T12:32:34.837Z,6.73
2019-05-20T12:35:06.938Z,5.73
2019-05-20T12:37:35.600Z,5.70
2019-05-20T12:40:07.450Z,5.93
2019-05-20T12:42:36.168Z,7.37
2019-05-20T12:45:06.908Z,7.10
2019-05-20T12:47:35.571Z,6.77
2019-05-20T12:50:08.620Z,7.37
2019-05-20T12:52:37.396Z,6.77
2019-05-20T12:55:09.585Z,5.67
2019-05-20T12:57:37.426Z,6.40
2019-05-20T13:00:11.325Z,6.40
2019-05-20T13:02:43.398Z,6.10
2019-05-20T13:05:12.651Z,6.37
2019-05-20T13:07:41.360Z,6.47
2019-05-20T13:10:26.881Z,6.10
2019-05-20T13:12:40.749Z,6.70
2019-05-20T13:15:10.649Z,7.93
2019-05-20T13:17:44.214Z,6.47
2019-05-20T13:20:10.915Z,7.10
2019-05-20T13:22:39.524Z,6.93
2019-05-20T13:25:08.272Z,6.40
2019-05-20T13:27:36.883Z,7.27
2019-05-20T13:30:08.975Z,7.50
2019-05-20T13:32:37.566Z,7.10
2019-05-20T13:35:07.388Z,7.53
2019-05-20T13:37:36.070Z,7.50
2019-05-20T13:40:05.838Z,8.27
2019-05-20T13:42:34.449Z,6.87
2019-05-20T13:45:03.037Z,7.40
2019-05-20T13:47:31.674Z,7.40
2019-05-20T13:50:00.292Z,7.60
2019-05-20T13:52:28.962Z,7.13
2019-05-20T13:54:57.645Z,7.40
2019-05-20T13:57:26.300Z,7.10
2019-05-20T13:59:54.887Z,8.10
2019-05-20T14:02:23.545Z,7.00
2019-05-20T14:04:52.211Z,7.40
2019-05-20T14:07:20.841Z,7.17
2019-05-20T14:09:49.415Z,7.03
2019-05-20T14:12:18.078Z,8.03
2019-05-20T14:14:49.767Z,7.03
2019-05-20T14:17:18.360Z,7.87
2019-05-20T14:19:46.982Z,7.90
2019-05-20T14:22:15.592Z,8.47
2019-05-20T14:24:44.179Z,7.80
2019-05-20T14:27:12.819Z,8.00
2019-05-20T14:29:41.384Z,8.47
2019-05-20T14:32:10.022Z,9.37
2019-05-20T14:34:38.591Z,8.97
2019-05-20T14:37:07.258Z,8.93
2019-05-20T14:39:35.940Z,8.97
2019-05-20T14:42:04.730Z,9.93
2019-05-20T14:44:33.331Z,11.00
2019-05-20T14:47:02.550Z,10.97
2019-05-20T14:49:31.164Z,11.00
2019-05-20T14:52:00.352Z,11.90
2019-05-20T14:54:28.934Z,11.17
2019-05-20T14:56:57.575Z,12.10
2019-05-20T14:59:26.238Z,11.80
2019-05-20T15:01:54.905Z,12.43
2019-05-20T15:04:23.507Z,14.00
2019-05-20T15:06:52.159Z,15.00
2019-05-20T15:09:20.847Z,14.80
2019-05-20T15:11:56.534Z,13.77
2019-05-20T15:14:30.496Z,15.43
2019-05-20T15:16:59.212Z,13.10
2019-05-20T15:19:27.869Z,13.33
2019-05-20T15:21:56.528Z,13.83
2019-05-20T15:24:25.105Z,13.90
2019-05-20T15:26:53.814Z,17.00
2019-05-20T15:29:28.011Z,19.50
2019-05-20T15:31:52.856Z,17.93
2019-05-20T15:34:21.523Z,18.57
2019-05-20T15:36:50.159Z,12.27
2019-05-20T15:39:18.760Z,8.70
2019-05-20T15:41:48.192Z,6.87
2019-05-20T15:44:16.970Z,7.10
2019-05-20T15:46:45.629Z,5.90
2019-05-20T15:49:14.336Z,5.50
2019-05-20T15:51:42.941Z,5.40
2019-05-20T15:54:11.556Z,4.90
2019-05-20T15:56:40.212Z,6.47
2019-05-20T15:59:09.127Z,5.37
2019-05-20T16:01:37.816Z,4.80
2019-05-20T16:04:06.572Z,7.20
2019-05-20T16:06:35.136Z,6.00
2019-05-20T16:09:04.760Z,5.70
2019-05-20T16:11:33.396Z,6.47
2019-05-20T16:14:02.081Z,6.87
2019-05-20T16:16:30.845Z,6.23
2019-05-20T16:18:59.499Z,6.23
2019-05-20T16:21:30.412Z,6.80
2019-05-20T16:24:03.990Z,6.93
2019-05-20T16:26:41.564Z,6.80
2019-05-20T16:29:20.525Z,7.67
2019-05-20T16:31:55.890Z,7.10
2019-05-20T16:34:28.849Z,7.90
2019-05-20T16:37:06.130Z,7.70
2019-05-20T16:39:42.335Z,8.40
2019-05-20T16:42:13.983Z,8.17
2019-05-20T16:44:42.562Z,8.43
2019-05-20T16:47:12.871Z,9.10
2019-05-20T16:49:41.468Z,9.30
2019-05-20T16:52:10.218Z,10.47
2019-05-20T16:54:38.925Z,10.77
2019-05-20T16:57:07.656Z,10.40
2019-05-20T16:59:36.254Z,10.60
2019-05-20T17:02:04.948Z,11.23
2019-05-20T17:04:33.597Z,11.20
2019-05-20T17:07:02.537Z,11.57
2019-05-20T17:09:31.223Z,10.83
2019-05-20T17:12:00.097Z,12.33
2019-05-20T17:14:30.423Z,12.53
2019-05-20T17:16:59.212Z,11.60
2019-05-20T17:19:30.807Z,12.23
2019-05-20T17:21:59.478Z,13.73
2019-05-20T17:24:28.147Z,15.43
2019-05-20T17:26:56.761Z,15.30
2019-05-20T17:29:25.506Z,15.50
2019-05-20T17:31:54.317Z,16.63
2019-05-20T17:34:23.194Z,16.67
2019-05-20T17:36:52.176Z,16.30
2019-05-20T17:39:21.186Z,17.80
2019-05-20T17:41:50.122Z,19.00
2019-05-20T17:44:19.149Z,18.20
2019-05-20T17:46:48.150Z,19.90
2019-05-20T17:49:27.765Z,19.93
2019-05-20T17:51:56.782Z,19.67
2019-05-20T17:54:25.742Z,17.73
2019-05-20T17:56:54.780Z,18.30
2019-05-20T17:59:23.760Z,18.80
2019-05-20T18:01:53.562Z,18.00
2019-05-20T18:04:22.536Z,18.10
2019-05-20T18:06:51.563Z,18.73
2019-05-20T18:09:21.204Z,16.47
2019-05-20T18:11:50.257Z,15.50
2019-05-20T18:14:19.817Z,16.20
2019-05-20T18:16:49.347Z,15.60
2019-05-20T18:19:18.339Z,15.43
2019-05-20T18:21:47.764Z,15.83
2019-05-20T18:24:16.811Z,16.80
2019-05-20T18:26:45.750Z,16.67
2019-05-20T18:29:14.792Z,15.60
2019-05-20T18:31:43.789Z,18.40
2019-05-20T18:34:14.446Z,17.60
2019-05-20T18:36:43.441Z,18.50
2019-05-20T18:39:12.568Z,20.00
2019-05-20T18:41:41.623Z,19.27
2019-05-20T18:44:13.277Z,19.30
2019-05-20T18:46:41.436Z,19.13
2019-05-20T18:49:10.437Z,18.87
2019-05-20T18:51:39.479Z,18.80
2019-05-20T18:54:08.484Z,19.23
2019-05-20T18:56:37.620Z,19.93
2019-05-20T18:59:06.675Z,20.70
2019-05-20T19:01:50.543Z,19.90
2019-05-20T19:04:07.908Z,20.47
2019-05-20T19:06:36.990Z,21.47
2019-05-20T19:09:07.399Z,21.50
2019-05-20T19:11:36.427Z,20.10
2019-05-20T19:14:08.281Z,19.20
2019-05-20T19:16:36.268Z,17.23
2019-05-20T19:19:05.325Z,18.37
2019-05-20T19:21:34.338Z,19.40
2019-05-20T19:24:03.369Z,17.60
2019-05-20T19:26:32.371Z,17.40
2019-05-20T19:29:01.386Z,18.57
2019-05-20T19:31:30.333Z,20.50
2019-05-20T19:33:59.375Z,18.00
2019-05-20T19:36:28.399Z,17.87
2019-05-20T19:38:57.333Z,16.30
2019-05-20T19:41:26.354Z,15.57
2019-05-20T19:43:55.387Z,15.37
2019-05-20T19:46:24.377Z,15.67
2019-05-20T19:48:53.470Z,14.00
2019-05-20T19:51:22.440Z,15.93
2019-05-20T19:53:51.390Z,14.00
2019-05-20T19:56:20.338Z,13.90
2019-05-20T19:58:49.351Z,13.90
2019-05-20T20:01:18.305Z,14.37
2019-05-20T20:03:47.238Z,15.40
2019-05-20T20:06:16.106Z,14.50
2019-05-20T20:08:45.043Z,13.20
2019-05-20T20:11:13.959Z,13.30
2019-05-20T20:13:42.780Z,13.20
2019-05-20T20:16:11.427Z,12.77
2019-05-20T20:18:40.077Z,12.40
2019-05-20T20:21:08.688Z,12.40
2019-05-20T20:23:37.330Z,11.20
2019-05-20T20:26:05.990Z,13.97
2019-05-20T20:28:34.708Z,13.90
2019-05-20T20:31:03.279Z,13.53
2019-05-20T20:33:31.911Z,12.70
2019-05-20T20:36:00.496Z,12.47
2019-05-20T20:38:29.266Z,12.70
2019-05-20T20:40:57.885Z,13.10
2019-05-20T20:43:26.619Z,13.20
2019-05-20T20:45:55.201Z,12.60
2019-05-20T20:48:23.824Z,13.97
2019-05-20T20:50:52.459Z,14.30
2019-05-20T20:53:21.111Z,15.03
2019-05-20T20:55:49.691Z,14.00
2019-05-20T20:58:18.482Z,14.37
2019-05-20T21:00:49.119Z,14.17
2019-05-20T21:03:17.799Z,12.63
2019-05-20T21:05:46.375Z,13.93
2019-05-20T21:08:16.788Z,12.27
2019-05-20T21:10:45.394Z,11.03
2019-05-20T21:13:14.122Z,10.80
2019-05-20T21:15:42.786Z,11.23
2019-05-20T21:18:11.399Z,11.03
2019-05-20T21:20:39.980Z,11.00
2019-05-20T21:23:08.656Z,10.73
2019-05-20T21:25:37.228Z,10.77
2019-05-20T21:28:05.857Z,10.60
2019-05-20T21:30:35.015Z,10.53
2019-05-20T21:33:09.271Z,11.30
2019-05-20T21:35:35.203Z,9.93
2019-05-20T21:38:03.891Z,9.50
2019-05-20T21:40:32.494Z,10.93
2019-05-20T21:43:01.122Z,10.67
2019-05-20T21:45:29.791Z,9.87
2019-05-20T21:47:58.540Z,10.53
2019-05-20T21:50:27.110Z,10.33
2019-05-20T21:52:55.847Z,11.10
2019-05-20T21:55:24.427Z,11.20
2019-05-20T21:57:53.085Z,11.07
2019-05-20T22:00:27.544Z,11.03
2019-05-20T22:02:56.963Z,11.13
2019-05-20T22:05:25.635Z,11.10
2019-05-20T22:07:54.258Z,11.20
2019-05-20T22:10:22.852Z,10.53
2019-05-20T22:12:51.525Z,11.77
2019-05-20T22:15:20.104Z,11.50
2019-05-20T22:17:48.735Z,12.40
2019-05-20T22:20:17.385Z,12.80
2019-05-20T22:22:53.669Z,12.73
2019-05-20T22:25:22.331Z,11.87
2019-05-20T22:27:50.937Z,12.40
2019-05-20T22:30:19.625Z,13.20
2019-05-20T22:32:48.220Z,11.67
2019-05-20T22:35:16.856Z,12.30
2019-05-20T22:37:45.488Z,13.40
2019-05-20T22:40:14.252Z,12.60
2019-05-20T22:42:42.873Z,12.60
2019-05-20T22:45:11.531Z,11.67
2019-05-20T22:47:40.562Z,11.70
2019-05-20T22:50:09.224Z,11.70
2019-05-20T22:52:37.837Z,12.50
2019-05-20T22:55:06.523Z,11.90
2019-05-20T22:57:35.169Z,11.37
2019-05-20T23:00:04.611Z,12.33
2019-05-20T23:02:33.299Z,11.60
2019-05-20T23:05:01.930Z,11.30
2019-05-20T23:07:30.565Z,12.10
2019-05-20T23:09:59.153Z,11.87
2019-05-20T23:12:27.881Z,10.70
2019-05-20T23:14:56.487Z,11.13
2019-05-20T23:17:25.105Z,12.30
2019-05-20T23:19:53.705Z,12.30
2019-05-20T23:22:22.340Z,11.20
2019-05-20T23:24:50.923Z,12.60
2019-05-20T23:27:19.614Z,11.77
2019-05-20T23:29:48.582Z,11.67
2019-05-20T23:32:17.229Z,13.23
2019-05-20T23:34:45.901Z,11.87
2019-05-20T23:37:14.559Z,12.00
2019-05-20T23:39:43.225Z,12.13
2019-05-20T23:42:11.812Z,12.60
2019-05-20T23:44:40.555Z,12.53
2019-05-20T23:47:09.142Z,12.10
2019-05-20T23:49:37.836Z,13.13
2019-05-20T23:52:06.493Z,13.10
2019-05-20T23:54:35.183Z,13.83
2019-05-20T23:57:03.895Z,15.13
2019-05-20T23:59:33.648Z,13.90
